createdAt,value
2022-11-29T00:01:15.794Z,80.96
2022-11-29T00:04:18.803Z,81.14
2022-11-29T00:07:21.277Z,81.27
2022-11-29T00:10:24.406Z,81.48
2022-11-29T00:13:26.817Z,81.53
2022-11-29T00:16:29.909Z,81.82
2022-11-29T00:19:34.730Z,81.61
2022-11-29T00:22:38.462Z,81.60
2022-11-29T00:25:40.956Z,81.73
2022-11-29T00:28:44.091Z,81.82
2022-11-29T00:31:46.643Z,81.49
2022-11-29T00:34:49.698Z,81.44
2022-11-29T00:37:52.138Z,81.48
2022-11-29T00:40:55.130Z,81.67
2022-11-29T00:43:57.643Z,81.86
2022-11-29T00:47:00.874Z,81.77
2022-11-29T00:50:04.339Z,81.98
2022-11-29T00:53:07.589Z,82.26
2022-11-29T00:56:10.302Z,82.29
2022-11-29T00:59:13.423Z,81.56
2022-11-29T01:02:15.919Z,81.75
2022-11-29T01:05:18.975Z,81.93
2022-11-29T01:08:21.538Z,82.09
2022-11-29T01:11:27.345Z,81.86
2022-11-29T01:14:29.775Z,81.67
2022-11-29T01:17:35.814Z,81.42
2022-11-29T01:20:38.280Z,81.39
2022-11-29T01:23:42.060Z,80.88
2022-11-29T01:26:44.631Z,81.17
2022-11-29T01:29:47.665Z,81.42
2022-11-29T01:32:50.154Z,81.47
2022-11-29T01:35:55.931Z,80.96
2022-11-29T01:39:02.625Z,81.29
2022-11-29T01:42:05.766Z,81.35
2022-11-29T01:45:28.456Z,80.92
2022-11-29T01:48:33.018Z,80.73
2022-11-29T01:51:37.961Z,80.63
2022-11-29T01:54:46.871Z,80.61
2022-11-29T01:57:49.770Z,80.76
2022-11-29T02:00:52.993Z,80.89
2022-11-29T02:03:55.828Z,80.89
2022-11-29T02:06:58.903Z,80.93
2022-11-29T02:10:02.760Z,80.84
2022-11-29T02:13:33.516Z,80.90
2022-11-29T02:16:45.064Z,80.79
2022-11-29T02:20:30.222Z,80.80
2022-11-29T02:24:05.991Z,80.74
2022-11-29T02:27:27.589Z,80.66
2022-11-29T02:30:44.634Z,80.21
2022-11-29T02:34:11.159Z,80.22
2022-11-29T02:37:34.190Z,80.14
2022-11-29T02:41:08.026Z,79.86
2022-11-29T02:44:22.729Z,79.55
2022-11-29T02:47:44.669Z,79.84
2022-11-29T02:51:08.703Z,79.75
2022-11-29T02:54:29.970Z,79.79
2022-11-29T02:57:45.790Z,79.25
2022-11-29T03:01:26.047Z,79.57
2022-11-29T03:04:38.056Z,79.44
2022-11-29T03:08:05.664Z,79.44
2022-11-29T03:11:48.839Z,79.03
2022-11-29T03:15:19.211Z,79.28
2022-11-29T03:18:42.277Z,80.06
2022-11-29T03:21:45.234Z,80.08
2022-11-29T03:24:47.748Z,79.90
2022-11-29T03:28:03.176Z,79.69
2022-11-29T03:31:30.387Z,79.24
2022-11-29T03:35:03.060Z,79.55
2022-11-29T03:38:36.401Z,79.63
2022-11-29T03:41:53.018Z,79.53
2022-11-29T03:45:05.845Z,79.75
2022-11-29T03:48:17.199Z,79.75
2022-11-29T03:51:43.117Z,79.90
2022-11-29T03:55:04.338Z,79.87
2022-11-29T03:58:25.384Z,80.05
2022-11-29T04:01:37.624Z,79.93
2022-11-29T04:05:01.814Z,79.49
2022-11-29T04:08:41.969Z,79.40
2022-11-29T04:12:17.087Z,79.12
2022-11-29T04:15:27.175Z,79.37
2022-11-29T04:18:59.189Z,79.65
2022-11-29T04:22:32.786Z,79.82
2022-11-29T04:25:35.591Z,79.68
2022-11-29T04:28:57.067Z,79.76
2022-11-29T04:31:59.722Z,79.74
2022-11-29T04:35:02.389Z,79.70
2022-11-29T04:38:14.327Z,79.36
2022-11-29T04:41:51.186Z,79.23
2022-11-29T04:45:18.131Z,79.22
2022-11-29T04:48:26.640Z,79.75
2022-11-29T04:51:55.986Z,79.51
2022-11-29T04:55:31.115Z,79.31
2022-11-29T04:58:43.710Z,79.11
2022-11-29T05:01:49.252Z,79.18
2022-11-29T05:05:06.130Z,79.03
2022-11-29T05:08:31.652Z,78.99
2022-11-29T05:11:49.435Z,79.27
2022-11-29T05:15:21.020Z,79.25
2022-11-29T05:18:55.897Z,79.16
2022-11-29T05:22:40.534Z,78.89
2022-11-29T05:26:05.620Z,79.35
2022-11-29T05:29:15.970Z,79.21
2022-11-29T05:32:28.725Z,78.76
2022-11-29T05:35:55.709Z,79.39
2022-11-29T05:39:23.114Z,79.99
2022-11-29T05:42:36.856Z,79.74
2022-11-29T05:45:44.310Z,79.84
2022-11-29T05:49:04.852Z,80.25
2022-11-29T05:52:32.517Z,80.56
2022-11-29T05:55:55.511Z,80.57
2022-11-29T05:59:02.462Z,80.58
2022-11-29T06:02:26.247Z,80.42
2022-11-29T06:05:29.150Z,80.06
2022-11-29T06:08:40.418Z,79.97
2022-11-29T06:11:48.710Z,79.47
2022-11-29T06:15:35.636Z,79.54
2022-11-29T06:19:11.969Z,79.55
2022-11-29T06:22:37.746Z,79.77
2022-11-29T06:25:48.474Z,79.86
2022-11-29T06:29:13.228Z,79.41
2022-11-29T06:33:08.580Z,79.40
2022-11-29T06:36:25.967Z,79.35
2022-11-29T06:39:29.047Z,79.56
2022-11-29T06:42:31.754Z,79.23
2022-11-29T06:45:34.879Z,79.56
2022-11-29T06:48:48.722Z,79.70
2022-11-29T06:52:06.357Z,79.81
2022-11-29T06:55:24.561Z,79.80
2022-11-29T06:59:01.665Z,79.38
2022-11-29T07:02:04.473Z,79.12
2022-11-29T07:05:19.623Z,79.42
2022-11-29T07:08:24.000Z,79.20
2022-11-29T07:11:27.956Z,79.04
2022-11-29T07:14:30.958Z,78.97
2022-11-29T07:17:50.375Z,79.24
2022-11-29T07:21:07.206Z,79.08
2022-11-29T07:24:41.858Z,78.81
2022-11-29T07:27:57.178Z,78.44
2022-11-29T07:31:11.879Z,78.34
2022-11-29T07:34:48.720Z,78.16
2022-11-29T07:38:07.427Z,77.98
2022-11-29T07:41:41.083Z,78.09
2022-11-29T07:45:11.479Z,77.80
2022-11-29T07:48:16.731Z,77.77
2022-11-29T07:51:19.589Z,77.85
2022-11-29T07:54:22.515Z,77.85
2022-11-29T07:57:25.302Z,78.05
2022-11-29T08:00:28.303Z,78.16
2022-11-29T08:03:31.185Z,78.20
2022-11-29T08:06:34.063Z,78.24
2022-11-29T08:09:36.856Z,77.53
2022-11-29T08:12:45.217Z,76.99
2022-11-29T08:15:48.738Z,77.15
2022-11-29T08:18:53.835Z,76.52
2022-11-29T08:21:56.567Z,76.43
2022-11-29T08:24:59.998Z,76.38
2022-11-29T08:28:03.541Z,76.94
2022-11-29T08:31:09.510Z,76.88
2022-11-29T08:34:12.453Z,76.66
2022-11-29T08:37:15.239Z,76.22
2022-11-29T08:40:18.249Z,75.78
2022-11-29T08:43:21.173Z,75.90
2022-11-29T08:46:43.900Z,75.44
2022-11-29T08:50:01.893Z,75.18
2022-11-29T08:53:23.090Z,74.80
2022-11-29T08:57:16.503Z,74.75
2022-11-29T08:59:48.874Z,74.29
2022-11-29T09:02:51.638Z,74.45
2022-11-29T09:05:54.790Z,74.58
2022-11-29T09:09:00.644Z,73.74
2022-11-29T09:12:07.480Z,73.74
2022-11-29T09:15:11.014Z,72.47
2022-11-29T09:18:13.917Z,72.84
2022-11-29T09:21:17.317Z,72.88
2022-11-29T09:24:20.717Z,72.71
2022-11-29T09:27:23.452Z,72.45
2022-11-29T09:30:26.577Z,72.05
2022-11-29T09:33:29.311Z,71.06
2022-11-29T09:36:32.298Z,71.10
2022-11-29T09:39:35.126Z,70.62
2022-11-29T09:42:55.325Z,70.29
2022-11-29T09:46:27.520Z,70.58
2022-11-29T09:49:55.886Z,70.43
2022-11-29T09:53:26.529Z,71.04
2022-11-29T09:56:33.730Z,92.11
2022-11-29T09:59:42.932Z,100.00
2022-11-29T10:02:50.138Z,100.00
2022-11-29T10:06:02.480Z,74.50
2022-11-29T10:09:17.181Z,61.12
2022-11-29T10:15:17.866Z,53.39
2022-11-29T10:18:32.240Z,53.39
2022-11-29T10:21:38.672Z,34.62
2022-11-29T10:24:46.451Z,37.43
2022-11-29T10:27:49.237Z,43.20
2022-11-29T10:30:56.135Z,47.99
2022-11-29T10:34:02.790Z,52.05
2022-11-29T10:37:10.707Z,56.03
2022-11-29T10:40:18.753Z,58.45
2022-11-29T10:43:22.007Z,60.86
2022-11-29T10:46:37.088Z,61.95
2022-11-29T10:49:40.353Z,62.77
2022-11-29T10:52:42.935Z,63.81
2022-11-29T10:55:50.874Z,65.42
2022-11-29T10:58:55.523Z,66.34
2022-11-29T11:02:00.535Z,67.31
2022-11-29T11:05:11.896Z,67.14
2022-11-29T11:08:18.427Z,67.50
2022-11-29T11:11:33.795Z,67.84
2022-11-29T11:14:39.008Z,68.40
2022-11-29T11:17:56.502Z,68.80
2022-11-29T11:21:02.085Z,69.38
2022-11-29T11:24:05.404Z,70.18
2022-11-29T11:27:08.537Z,70.22
2022-11-29T11:30:31.790Z,70.15
2022-11-29T11:33:39.452Z,70.23
2022-11-29T11:36:41.942Z,70.37
2022-11-29T11:39:47.369Z,70.52
2022-11-29T11:42:50.014Z,69.78
2022-11-29T11:45:54.531Z,70.34
2022-11-29T11:48:56.961Z,70.93
2022-11-29T11:52:01.763Z,70.94
2022-11-29T11:55:30.524Z,71.22
2022-11-29T11:58:45.602Z,71.23
2022-11-29T12:01:48.195Z,70.91
2022-11-29T12:04:54.917Z,71.12
2022-11-29T12:08:09.019Z,71.47
2022-11-29T12:11:16.201Z,71.27
2022-11-29T12:14:28.455Z,71.66
2022-11-29T12:17:49.238Z,72.31
2022-11-29T12:20:58.302Z,71.94
2022-11-29T12:24:21.332Z,72.01
2022-11-29T12:27:23.828Z,72.24
2022-11-29T12:30:29.651Z,72.58
2022-11-29T12:34:08.584Z,72.22
2022-11-29T12:37:35.746Z,72.06
2022-11-29T12:41:01.873Z,72.70
2022-11-29T12:44:15.748Z,72.36
2022-11-29T12:47:36.163Z,72.32
2022-11-29T12:51:04.797Z,72.06
2022-11-29T12:54:39.456Z,71.81
2022-11-29T12:58:24.604Z,71.82
2022-11-29T13:01:49.065Z,71.77
2022-11-29T13:05:04.283Z,71.85
2022-11-29T13:08:15.933Z,71.84
2022-11-29T13:11:28.095Z,71.33
2022-11-29T13:14:56.731Z,71.57
2022-11-29T13:18:10.135Z,71.43
2022-11-29T13:21:19.383Z,71.92
2022-11-29T13:24:42.480Z,71.73
2022-11-29T13:27:58.885Z,71.73
2022-11-29T13:31:06.272Z,72.04
2022-11-29T13:34:34.502Z,71.90
2022-11-29T13:37:54.948Z,72.07
2022-11-29T13:41:04.716Z,72.26
2022-11-29T13:44:29.894Z,71.75
2022-11-29T13:47:32.436Z,72.12
2022-11-29T13:50:38.835Z,72.77
2022-11-29T13:53:48.573Z,72.86
2022-11-29T13:57:04.158Z,72.94
2022-11-29T14:00:07.447Z,72.70
2022-11-29T14:03:28.542Z,73.28
2022-11-29T14:06:38.925Z,73.51
2022-11-29T14:09:50.472Z,73.57
2022-11-29T14:12:57.565Z,73.40
2022-11-29T14:16:03.643Z,73.56
2022-11-29T14:19:09.107Z,73.81
2022-11-29T14:22:21.410Z,73.79
2022-11-29T14:25:50.716Z,73.38
2022-11-29T14:28:49.157Z,74.13
2022-11-29T14:31:54.993Z,74.01
2022-11-29T14:35:10.253Z,73.90
2022-11-29T14:38:32.745Z,73.86
2022-11-29T14:41:51.333Z,74.47
2022-11-29T14:44:58.442Z,75.03
2022-11-29T14:48:02.787Z,74.90
2022-11-29T14:51:13.011Z,74.56
2022-11-29T14:54:19.918Z,74.65
2022-11-29T14:58:01.334Z,74.97
2022-11-29T15:01:10.684Z,75.19
2022-11-29T15:04:13.922Z,75.38
2022-11-29T15:07:24.668Z,75.56
2022-11-29T15:10:31.424Z,75.29
2022-11-29T15:13:37.254Z,75.30
2022-11-29T15:16:48.218Z,75.71
2022-11-29T15:20:06.425Z,75.64
2022-11-29T15:23:18.568Z,75.49
2022-11-29T15:26:21.825Z,75.77
2022-11-29T15:29:25.836Z,75.92
2022-11-29T15:32:32.557Z,75.96
2022-11-29T15:35:36.358Z,76.51
2022-11-29T15:38:45.376Z,76.68
2022-11-29T15:41:47.895Z,76.55
2022-11-29T15:44:52.987Z,76.57
2022-11-29T15:47:56.172Z,76.25
2022-11-29T15:51:18.681Z,76.44
2022-11-29T15:54:27.281Z,76.28
2022-11-29T15:57:40.948Z,76.43
2022-11-29T16:00:49.793Z,76.78
2022-11-29T16:03:56.958Z,76.50
2022-11-29T16:06:59.720Z,76.24
2022-11-29T16:10:14.866Z,76.55
2022-11-29T16:13:31.192Z,76.95
2022-11-29T16:16:35.704Z,77.30
2022-11-29T16:19:40.039Z,77.25
2022-11-29T16:22:43.171Z,77.31
2022-11-29T16:25:58.618Z,77.55
2022-11-29T16:29:02.532Z,77.46
2022-11-29T16:32:26.086Z,77.71
2022-11-29T16:35:33.779Z,77.97
2022-11-29T16:38:36.493Z,78.31
2022-11-29T16:41:39.590Z,78.51
2022-11-29T16:44:45.351Z,77.96
2022-11-29T16:48:01.547Z,78.48
2022-11-29T16:51:10.273Z,78.07
2022-11-29T16:54:25.123Z,77.72
2022-11-29T16:57:28.940Z,78.58
2022-11-29T17:00:33.460Z,78.70
2022-11-29T17:03:35.966Z,78.67
2022-11-29T17:06:39.113Z,78.82
2022-11-29T17:09:42.048Z,78.66
2022-11-29T17:12:48.320Z,78.58
2022-11-29T17:15:51.080Z,78.77
2022-11-29T17:18:54.169Z,78.61
2022-11-29T17:21:56.728Z,78.94
2022-11-29T17:24:59.785Z,78.41
2022-11-29T17:28:02.895Z,78.53
2022-11-29T17:31:10.883Z,78.72
2022-11-29T17:34:13.542Z,78.51
2022-11-29T17:37:16.624Z,78.45
2022-11-29T17:40:20.207Z,78.60
2022-11-29T17:43:23.303Z,78.85
2022-11-29T17:46:28.883Z,78.97
2022-11-29T17:49:31.950Z,78.93
2022-11-29T17:52:34.796Z,78.86
2022-11-29T17:55:37.857Z,78.96
2022-11-29T17:58:41.220Z,79.19
2022-11-29T18:01:47.040Z,79.42
2022-11-29T18:04:50.149Z,78.87
2022-11-29T18:07:58.840Z,79.26
2022-11-29T18:11:29.870Z,78.56
2022-11-29T18:14:33.555Z,79.01
2022-11-29T18:17:36.604Z,78.84
2022-11-29T18:20:39.366Z,78.46
2022-11-29T18:23:44.151Z,78.82
2022-11-29T18:26:46.922Z,78.33
2022-11-29T18:29:49.924Z,78.03
2022-11-29T18:32:52.981Z,78.48
2022-11-29T18:36:02.384Z,78.84
2022-11-29T18:39:11.609Z,78.75
2022-11-29T18:42:14.482Z,78.57
2022-11-29T18:45:17.479Z,78.40
2022-11-29T18:48:20.346Z,78.78
2022-11-29T18:51:23.163Z,78.36
2022-11-29T18:54:26.045Z,78.76
2022-11-29T18:57:28.782Z,78.10
2022-11-29T19:00:31.644Z,78.30
2022-11-29T19:03:36.648Z,78.20
2022-11-29T19:06:40.574Z,78.37
2022-11-29T19:09:43.406Z,78.72
2022-11-29T19:12:46.607Z,78.52
2022-11-29T19:15:55.907Z,78.76
2022-11-29T19:19:00.032Z,78.33
2022-11-29T19:22:03.000Z,78.22
2022-11-29T19:25:09.182Z,78.84
2022-11-29T19:28:14.204Z,78.76
2022-11-29T19:31:19.733Z,78.83
2022-11-29T19:34:22.652Z,79.15
2022-11-29T19:37:25.444Z,79.48
2022-11-29T19:40:28.225Z,79.48
2022-11-29T19:43:31.822Z,79.60
2022-11-29T19:46:37.822Z,79.55
2022-11-29T19:49:46.161Z,78.48
2022-11-29T19:52:50.139Z,78.15
2022-11-29T19:55:53.017Z,77.99
2022-11-29T19:58:56.181Z,77.88
2022-11-29T20:01:59.685Z,77.62
2022-11-29T20:05:02.879Z,77.76
2022-11-29T20:08:05.541Z,77.65
2022-11-29T20:11:29.249Z,77.94
2022-11-29T20:14:31.754Z,77.82
2022-11-29T20:17:34.791Z,77.77
2022-11-29T20:20:37.530Z,77.87
2022-11-29T20:23:41.967Z,77.38
2022-11-29T20:29:49.903Z,77.52
2022-11-29T20:32:52.538Z,77.69
2022-11-29T20:36:23.786Z,77.74
2022-11-29T20:39:36.613Z,77.91
2022-11-29T20:45:56.135Z,77.39
2022-11-29T20:49:03.233Z,77.40
2022-11-29T20:52:18.476Z,77.45
2022-11-29T20:55:22.395Z,77.31
2022-11-29T20:58:26.565Z,77.04
2022-11-29T21:01:30.046Z,76.67
2022-11-29T21:04:32.599Z,76.89
2022-11-29T21:07:36.698Z,76.92
2022-11-29T21:10:39.115Z,76.55
2022-11-29T21:13:42.494Z,76.36
2022-11-29T21:16:45.431Z,76.24
2022-11-29T21:19:48.456Z,75.88
2022-11-29T21:23:11.044Z,76.25
2022-11-29T21:26:19.930Z,76.13
2022-11-29T21:29:23.259Z,75.92
2022-11-29T21:32:27.378Z,75.90
2022-11-29T21:35:30.047Z,75.74
2022-11-29T21:38:33.146Z,76.00
2022-11-29T21:41:36.328Z,76.06
2022-11-29T21:44:39.359Z,75.73
2022-11-29T21:47:42.210Z,75.41
2022-11-29T21:50:49.734Z,75.34
2022-11-29T21:53:52.203Z,75.17
2022-11-29T21:56:55.876Z,75.11
2022-11-29T21:59:58.385Z,75.15
2022-11-29T22:03:04.169Z,74.92
2022-11-29T22:06:09.744Z,74.63
2022-11-29T22:09:13.189Z,75.02
2022-11-29T22:12:33.795Z,74.83
2022-11-29T22:15:37.536Z,75.16
2022-11-29T22:18:40.273Z,75.45
2022-11-29T22:21:46.117Z,75.21
2022-11-29T22:24:49.388Z,74.63
2022-11-29T22:27:52.242Z,74.79
2022-11-29T22:31:08.799Z,74.89
2022-11-29T22:34:11.842Z,74.55
2022-11-29T22:37:14.576Z,74.37
2022-11-29T22:40:17.422Z,74.21
2022-11-29T22:43:20.162Z,74.39
2022-11-29T22:46:24.956Z,74.18
2022-11-29T22:49:27.751Z,74.31
2022-11-29T22:52:30.527Z,74.38
2022-11-29T22:55:33.258Z,74.23
2022-11-29T22:58:36.285Z,73.47
2022-11-29T23:01:40.933Z,73.64
2022-11-29T23:04:44.322Z,73.45
2022-11-29T23:07:55.082Z,73.42
2022-11-29T23:10:58.693Z,72.85
2022-11-29T23:14:01.352Z,72.89
2022-11-29T23:17:04.306Z,72.76
2022-11-29T23:20:07.837Z,72.79
2022-11-29T23:23:11.004Z,72.74
2022-11-29T23:26:22.887Z,72.86
2022-11-29T23:29:25.735Z,72.58
2022-11-29T23:32:28.472Z,72.25
2022-11-29T23:35:31.253Z,72.57
2022-11-29T23:38:34.272Z,72.69
2022-11-29T23:41:37.198Z,72.70
2022-11-29T23:44:39.923Z,72.73
2022-11-29T23:47:42.712Z,72.35
2022-11-29T23:50:46.307Z,72.17
2022-11-29T23:53:53.545Z,72.33
2022-11-29T23:56:56.302Z,72.14
2022-11-29T23:59:59.034Z,72.19
